sensor_id;sensor_type;location;lat;lon;timestamp;P1;durP1;ratioP1;P2;durP2;ratioP2
47812;SDS011;34221;45.296;9.516;2023-09-30T00:00:00;30.45;;;22.92;;
47812;SDS011;34221;45.296;9.516;2023-09-30T00:00:25;28.45;;;22.50;;
47812;SDS011;34221;45.296;9.516;2023-09-30T00:00:40;30.45;;;23.08;;
47812;SDS011;34221;45.296;9.516;2023-09-30T00:00:56;30.63;;;23.13;;
47812;SDS011;34221;45.296;9.516;2023-09-30T00:01:12;32.30;;;22.90;;
47812;SDS011;34221;45.296;9.516;2023-09-30T00:01:28;28.98;;;22.13;;
47812;SDS011;34221;45.296;9.516;2023-09-30T00:01:44;25.35;;;21.50;;
47812;SDS011;34221;45.296;9.516;2023-09-30T00:02:00;25.75;;;21.40;;
47812;SDS011;34221;45.296;9.516;2023-09-30T00:02:15;28.15;;;21.95;;
47812;SDS011;34221;45.296;9.516;2023-09-30T00:02:30;28.88;;;21.20;;
47812;SDS011;34221;45.296;9.516;2023-09-30T00:02:46;29.75;;;20.95;;
47812;SDS011;34221;45.296;9.516;2023-09-30T00:03:01;30.17;;;21.70;;
47812;SDS011;34221;45.296;9.516;2023-09-30T00:03:17;28.42;;;21.70;;
47812;SDS011;34221;45.296;9.516;2023-09-30T00:03:32;27.63;;;22.27;;
47812;SDS011;34221;45.296;9.516;2023-09-30T00:03:48;28.52;;;22.27;;
47812;SDS011;34221;45.296;9.516;2023-09-30T00:04:03;27.73;;;21.60;;
47812;SDS011;34221;45.296;9.516;2023-09-30T00:04:19;26.20;;;21.45;;
47812;SDS011;34221;45.296;9.516;2023-09-30T00:04:35;25.45;;;21.58;;
47812;SDS011;34221;45.296;9.516;2023-09-30T00:04:50;26.83;;;22.38;;
47812;SDS011;34221;45.296;9.516;2023-09-30T00:05:06;26.77;;;22.00;;
47812;SDS011;34221;45.296;9.516;2023-09-30T00:05:22;25.92;;;21.75;;
47812;SDS011;34221;45.296;9.516;2023-09-30T00:05:37;27.42;;;22.75;;
47812;SDS011;34221;45.296;9.516;2023-09-30T00:05:53;27.13;;;22.27;;
47812;SDS011;34221;45.296;9.516;2023-09-30T00:06:08;26.25;;;21.75;;
47812;SDS011;34221;45.296;9.516;2023-09-30T00:06:23;26.48;;;21.45;;
47812;SDS011;34221;45.296;9.516;2023-09-30T00:06:39;25.85;;;21.08;;
47812;SDS011;34221;45.296;9.516;2023-09-30T00:06:54;26.48;;;21.67;;
47812;SDS011;34221;45.296;9.516;2023-09-30T00:07:09;25.30;;;21.20;;
47812;SDS011;34221;45.296;9.516;2023-09-30T00:07:25;24.05;;;20.83;;
47812;SDS011;34221;45.296;9.516;2023-09-30T00:07:40;26.23;;;21.38;;
47812;SDS011;34221;45.296;9.516;2023-09-30T00:07:56;28.20;;;21.83;;
47812;SDS011;34221;45.296;9.516;2023-09-30T00:08:11;27.73;;;21.48;;
47812;SDS011;34221;45.296;9.516;2023-09-30T00:08:26;25.67;;;20.63;;
47812;SDS011;34221;45.296;9.516;2023-09-30T00:08:42;24.95;;;20.55;;
47812;SDS011;34221;45.296;9.516;2023-09-30T00:08:58;25.73;;;21.13;;
47812;SDS011;34221;45.296;9.516;2023-09-30T00:09:13;26.58;;;21.50;;
47812;SDS011;34221;45.296;9.516;2023-09-30T00:09:29;27.55;;;21.63;;
47812;SDS011;34221;45.296;9.516;2023-09-30T00:09:44;28.08;;;21.48;;
47812;SDS011;34221;45.296;9.516;2023-09-30T00:10:00;26.08;;;20.95;;
47812;SDS011;34221;45.296;9.516;2023-09-30T00:10:15;25.02;;;20.55;;
47812;SDS011;34221;45.296;9.516;2023-09-30T00:10:31;25.15;;;20.83;;
47812;SDS011;34221;45.296;9.516;2023-09-30T00:10:46;26.75;;;21.95;;
47812;SDS011;34221;45.296;9.516;2023-09-30T00:11:02;29.40;;;23.38;;
47812;SDS011;34221;45.296;9.516;2023-09-30T00:11:18;27.80;;;22.15;;
47812;SDS011;34221;45.296;9.516;2023-09-30T00:11:34;26.17;;;21.30;;
47812;SDS011;34221;45.296;9.516;2023-09-30T00:11:49;26.63;;;21.77;;
47812;SDS011;34221;45.296;9.516;2023-09-30T00:12:04;27.77;;;22.33;;
47812;SDS011;34221;45.296;9.516;2023-09-30T00:12:20;26.58;;;21.27;;
47812;SDS011;34221;45.296;9.516;2023-09-30T00:12:35;26.05;;;20.50;;
47812;SDS011;34221;45.296;9.516;2023-09-30T00:12:51;29.13;;;21.52;;
47812;SDS011;34221;45.296;9.516;2023-09-30T00:13:06;27.02;;;21.02;;
47812;SDS011;34221;45.296;9.516;2023-09-30T00:13:21;25.90;;;21.38;;
47812;SDS011;34221;45.296;9.516;2023-09-30T00:13:38;28.35;;;21.52;;
47812;SDS011;34221;45.296;9.516;2023-09-30T00:13:53;26.52;;;20.23;;
47812;SDS011;34221;45.296;9.516;2023-09-30T00:14:09;29.30;;;21.88;;
47812;SDS011;34221;45.296;9.516;2023-09-30T00:14:24;32.30;;;22.73;;
47812;SDS011;34221;45.296;9.516;2023-09-30T00:14:39;28.13;;;21.92;;
47812;SDS011;34221;45.296;9.516;2023-09-30T00:14:55;26.73;;;22.50;;
47812;SDS011;34221;45.296;9.516;2023-09-30T00:15:10;26.42;;;21.80;;
47812;SDS011;34221;45.296;9.516;2023-09-30T00:15:25;25.98;;;20.88;;
47812;SDS011;34221;45.296;9.516;2023-09-30T00:15:41;28.00;;;21.45;;
47812;SDS011;34221;45.296;9.516;2023-09-30T00:15:56;26.83;;;20.67;;
47812;SDS011;34221;45.296;9.516;2023-09-30T00:16:12;25.75;;;20.70;;
47812;SDS011;34221;45.296;9.516;2023-09-30T00:16:27;27.23;;;20.77;;
47812;SDS011;34221;45.296;9.516;2023-09-30T00:16:43;25.95;;;20.48;;
47812;SDS011;34221;45.296;9.516;2023-09-30T00:16:58;24.23;;;20.27;;
47812;SDS011;34221;45.296;9.516;2023-09-30T00:17:14;27.77;;;21.87;;
47812;SDS011;34221;45.296;9.516;2023-09-30T00:17:29;28.20;;;22.20;;
47812;SDS011;34221;45.296;9.516;2023-09-30T00:17:45;24.87;;;20.50;;
47812;SDS011;34221;45.296;9.516;2023-09-30T00:18:00;25.40;;;21.10;;
47812;SDS011;34221;45.296;9.516;2023-09-30T00:18:15;26.02;;;21.23;;
47812;SDS011;34221;45.296;9.516;2023-09-30T00:18:31;24.95;;;21.13;;
47812;SDS011;34221;45.296;9.516;2023-09-30T00:18:46;24.42;;;20.67;;
47812;SDS011;34221;45.296;9.516;2023-09-30T00:19:01;25.38;;;20.48;;
47812;SDS011;34221;45.296;9.516;2023-09-30T00:19:17;27.65;;;21.77;;
47812;SDS011;34221;45.296;9.516;2023-09-30T00:19:33;26.38;;;21.67;;
47812;SDS011;34221;45.296;9.516;2023-09-30T00:19:48;25.95;;;21.30;;
47812;SDS011;34221;45.296;9.516;2023-09-30T00:20:06;27.45;;;21.60;;
47812;SDS011;34221;45.296;9.516;2023-09-30T00:20:22;26.80;;;21.85;;
47812;SDS011;34221;45.296;9.516;2023-09-30T00:20:37;26.73;;;22.17;;
47812;SDS011;34221;45.296;9.516;2023-09-30T00:20:53;25.20;;;21.30;;
47812;SDS011;34221;45.296;9.516;2023-09-30T00:21:09;25.40;;;20.85;;
47812;SDS011;34221;45.296;9.516;2023-09-30T00:21:24;27.27;;;21.10;;
47812;SDS011;34221;45.296;9.516;2023-09-30T00:21:39;26.95;;;21.33;;
47812;SDS011;34221;45.296;9.516;2023-09-30T00:21:55;26.95;;;21.25;;
47812;SDS011;34221;45.296;9.516;2023-09-30T00:22:10;28.05;;;21.40;;
47812;SDS011;34221;45.296;9.516;2023-09-30T00:22:26;26.60;;;21.38;;
47812;SDS011;34221;45.296;9.516;2023-09-30T00:22:41;26.75;;;21.58;;
47812;SDS011;34221;45.296;9.516;2023-09-30T00:22:57;27.80;;;21.48;;
47812;SDS011;34221;45.296;9.516;2023-09-30T00:23:12;27.05;;;21.38;;
47812;SDS011;34221;45.296;9.516;2023-09-30T00:23:27;25.98;;;21.25;;
47812;SDS011;34221;45.296;9.516;2023-09-30T00:23:43;24.95;;;20.63;;
47812;SDS011;34221;45.296;9.516;2023-09-30T00:23:58;25.02;;;21.13;;
47812;SDS011;34221;45.296;9.516;2023-09-30T00:24:13;26.45;;;22.40;;
47812;SDS011;34221;45.296;9.516;2023-09-30T00:24:29;27.23;;;21.98;;
47812;SDS011;34221;45.296;9.516;2023-09-30T00:24:44;26.75;;;21.17;;
47812;SDS011;34221;45.296;9.516;2023-09-30T00:24:59;25.65;;;21.58;;
47812;SDS011;34221;45.296;9.516;2023-09-30T00:25:15;25.65;;;21.23;;
47812;SDS011;34221;45.296;9.516;2023-09-30T00:25:30;25.02;;;20.48;;
47812;SDS011;34221;45.296;9.516;2023-09-30T00:25:46;23.23;;;20.33;;
47812;SDS011;34221;45.296;9.516;2023-09-30T00:26:04;22.45;;;19.60;;
47812;SDS011;34221;45.296;9.516;2023-09-30T00:26:19;24.75;;;20.55;;
47812;SDS011;34221;45.296;9.516;2023-09-30T00:26:36;26.40;;;20.73;;
47812;SDS011;34221;45.296;9.516;2023-09-30T00:26:51;26.83;;;20.50;;
47812;SDS011;34221;45.296;9.516;2023-09-30T00:27:06;25.05;;;21.33;;
47812;SDS011;34221;45.296;9.516;2023-09-30T00:27:22;26.05;;;21.42;;
47812;SDS011;34221;45.296;9.516;2023-09-30T00:27:37;27.42;;;21.55;;
47812;SDS011;34221;45.296;9.516;2023-09-30T00:27:53;25.05;;;21.20;;
47812;SDS011;34221;45.296;9.516;2023-09-30T00:28:09;25.73;;;21.55;;
47812;SDS011;34221;45.296;9.516;2023-09-30T00:28:24;27.55;;;21.33;;
47812;SDS011;34221;45.296;9.516;2023-09-30T00:28:39;27.27;;;21.27;;
47812;SDS011;34221;45.296;9.516;2023-09-30T00:28:55;27.70;;;22.40;;
47812;SDS011;34221;45.296;9.516;2023-09-30T00:29:10;26.48;;;21.60;;
47812;SDS011;34221;45.296;9.516;2023-09-30T00:29:25;23.35;;;20.27;;
47812;SDS011;34221;45.296;9.516;2023-09-30T00:29:41;24.98;;;21.15;;
47812;SDS011;34221;45.296;9.516;2023-09-30T00:29:56;26.25;;;21.88;;
47812;SDS011;34221;45.296;9.516;2023-09-30T00:30:11;24.75;;;21.73;;
47812;SDS011;34221;45.296;9.516;2023-09-30T00:30:27;25.38;;;21.15;;
47812;SDS011;34221;45.296;9.516;2023-09-30T00:30:42;26.67;;;21.13;;
47812;SDS011;34221;45.296;9.516;2023-09-30T00:31:01;24.80;;;20.85;;
47812;SDS011;34221;45.296;9.516;2023-09-30T00:31:23;25.02;;;20.75;;
47812;SDS011;34221;45.296;9.516;2023-09-30T00:31:38;27.02;;;21.23;;
47812;SDS011;34221;45.296;9.516;2023-09-30T00:31:55;27.13;;;21.45;;
47812;SDS011;34221;45.296;9.516;2023-09-30T00:32:10;24.48;;;19.98;;
47812;SDS011;34221;45.296;9.516;2023-09-30T00:32:26;24.55;;;19.90;;
47812;SDS011;34221;45.296;9.516;2023-09-30T00:32:42;26.90;;;20.85;;
47812;SDS011;34221;45.296;9.516;2023-09-30T00:32:58;27.23;;;21.08;;
47812;SDS011;34221;45.296;9.516;2023-09-30T00:33:14;26.67;;;21.40;;
47812;SDS011;34221;45.296;9.516;2023-09-30T00:33:29;26.42;;;21.42;;
47812;SDS011;34221;45.296;9.516;2023-09-30T00:33:45;25.67;;;20.90;;
47812;SDS011;34221;45.296;9.516;2023-09-30T00:34:00;28.38;;;20.58;;
47812;SDS011;34221;45.296;9.516;2023-09-30T00:34:15;29.15;;;21.30;;
47812;SDS011;34221;45.296;9.516;2023-09-30T00:34:34;25.92;;;21.05;;
47812;SDS011;34221;45.296;9.516;2023-09-30T00:34:50;24.65;;;20.60;;
47812;SDS011;34221;45.296;9.516;2023-09-30T00:35:06;24.15;;;20.33;;
47812;SDS011;34221;45.296;9.516;2023-09-30T00:35:25;26.48;;;20.98;;
47812;SDS011;34221;45.296;9.516;2023-09-30T00:35:40;26.50;;;20.70;;
47812;SDS011;34221;45.296;9.516;2023-09-30T00:35:56;26.20;;;20.38;;
47812;SDS011;34221;45.296;9.516;2023-09-30T00:36:11;26.90;;;20.85;;
47812;SDS011;34221;45.296;9.516;2023-09-30T00:36:27;26.42;;;21.35;;
47812;SDS011;34221;45.296;9.516;2023-09-30T00:36:42;27.30;;;22.10;;
47812;SDS011;34221;45.296;9.516;2023-09-30T00:36:58;26.60;;;21.40;;
47812;SDS011;34221;45.296;9.516;2023-09-30T00:37:13;23.95;;;19.70;;
47812;SDS011;34221;45.296;9.516;2023-09-30T00:37:28;24.27;;;20.38;;
47812;SDS011;34221;45.296;9.516;2023-09-30T00:37:45;25.90;;;21.00;;
47812;SDS011;34221;45.296;9.516;2023-09-30T00:38:00;27.02;;;21.20;;
47812;SDS011;34221;45.296;9.516;2023-09-30T00:38:15;26.83;;;20.98;;
47812;SDS011;34221;45.296;9.516;2023-09-30T00:38:49;25.55;;;20.15;;
47812;SDS011;34221;45.296;9.516;2023-09-30T00:39:06;25.57;;;20.00;;
47812;SDS011;34221;45.296;9.516;2023-09-30T00:39:22;24.83;;;20.30;;
47812;SDS011;34221;45.296;9.516;2023-09-30T00:39:40;26.38;;;20.70;;
47812;SDS011;34221;45.296;9.516;2023-09-30T00:39:56;26.33;;;20.90;;
47812;SDS011;34221;45.296;9.516;2023-09-30T00:40:11;23.58;;;19.70;;
47812;SDS011;34221;45.296;9.516;2023-09-30T00:40:27;23.65;;;19.10;;
47812;SDS011;34221;45.296;9.516;2023-09-30T00:40:47;25.33;;;20.15;;
47812;SDS011;34221;45.296;9.516;2023-09-30T00:41:03;22.95;;;20.15;;
47812;SDS011;34221;45.296;9.516;2023-09-30T00:41:18;23.20;;;19.83;;
47812;SDS011;34221;45.296;9.516;2023-09-30T00:41:34;25.75;;;20.27;;
47812;SDS011;34221;45.296;9.516;2023-09-30T00:41:50;26.23;;;21.00;;
47812;SDS011;34221;45.296;9.516;2023-09-30T00:42:05;24.88;;;20.33;;
47812;SDS011;34221;45.296;9.516;2023-09-30T00:42:20;24.75;;;20.42;;
47812;SDS011;34221;45.296;9.516;2023-09-30T00:42:36;25.23;;;20.65;;
47812;SDS011;34221;45.296;9.516;2023-09-30T00:42:52;25.55;;;20.73;;
47812;SDS011;34221;45.296;9.516;2023-09-30T00:43:07;24.73;;;20.40;;
47812;SDS011;34221;45.296;9.516;2023-09-30T00:43:33;24.65;;;19.95;;
47812;SDS011;34221;45.296;9.516;2023-09-30T00:43:49;27.90;;;21.10;;
47812;SDS011;34221;45.296;9.516;2023-09-30T00:44:04;26.73;;;20.47;;
47812;SDS011;34221;45.296;9.516;2023-09-30T00:44:20;23.23;;;19.65;;
47812;SDS011;34221;45.296;9.516;2023-09-30T00:44:35;23.65;;;19.85;;
47812;SDS011;34221;45.296;9.516;2023-09-30T00:44:50;24.27;;;20.00;;
47812;SDS011;34221;45.296;9.516;2023-09-30T00:45:06;29.00;;;20.45;;
47812;SDS011;34221;45.296;9.516;2023-09-30T00:45:25;28.92;;;19.95;;
47812;SDS011;34221;45.296;9.516;2023-09-30T00:45:40;24.70;;;19.63;;
47812;SDS011;34221;45.296;9.516;2023-09-30T00:46:01;25.83;;;20.60;;
47812;SDS011;34221;45.296;9.516;2023-09-30T00:46:29;24.55;;;19.48;;
47812;SDS011;34221;45.296;9.516;2023-09-30T00:46:45;24.15;;;20.30;;
47812;SDS011;34221;45.296;9.516;2023-09-30T00:47:01;24.10;;;20.65;;
47812;SDS011;34221;45.296;9.516;2023-09-30T00:47:17;24.25;;;20.40;;
47812;SDS011;34221;45.296;9.516;2023-09-30T00:47:34;27.73;;;21.75;;
47812;SDS011;34221;45.296;9.516;2023-09-30T00:47:50;27.43;;;21.90;;
47812;SDS011;34221;45.296;9.516;2023-09-30T00:48:06;25.02;;;20.30;;
47812;SDS011;34221;45.296;9.516;2023-09-30T00:48:21;23.38;;;19.02;;
47812;SDS011;34221;45.296;9.516;2023-09-30T00:48:36;24.98;;;20.13;;
47812;SDS011;34221;45.296;9.516;2023-09-30T00:48:53;24.27;;;20.13;;
47812;SDS011;34221;45.296;9.516;2023-09-30T00:49:09;22.40;;;19.00;;
47812;SDS011;34221;45.296;9.516;2023-09-30T00:49:24;24.83;;;19.83;;
47812;SDS011;34221;45.296;9.516;2023-09-30T00:49:40;27.20;;;20.58;;
47812;SDS011;34221;45.296;9.516;2023-09-30T00:49:58;25.63;;;20.48;;
47812;SDS011;34221;45.296;9.516;2023-09-30T00:50:14;25.13;;;20.30;;
47812;SDS011;34221;45.296;9.516;2023-09-30T00:50:29;26.38;;;20.10;;
47812;SDS011;34221;45.296;9.516;2023-09-30T00:50:45;24.92;;;19.35;;
47812;SDS011;34221;45.296;9.516;2023-09-30T00:51:00;23.20;;;18.85;;
47812;SDS011;34221;45.296;9.516;2023-09-30T00:51:16;24.85;;;18.90;;
47812;SDS011;34221;45.296;9.516;2023-09-30T00:51:32;25.17;;;19.65;;
47812;SDS011;34221;45.296;9.516;2023-09-30T00:51:47;27.60;;;20.73;;
47812;SDS011;34221;45.296;9.516;2023-09-30T00:52:03;27.83;;;21.33;;
47812;SDS011;34221;45.296;9.516;2023-09-30T00:52:19;24.42;;;20.23;;
47812;SDS011;34221;45.296;9.516;2023-09-30T00:52:35;23.00;;;19.55;;
47812;SDS011;34221;45.296;9.516;2023-09-30T00:52:51;25.98;;;20.98;;
47812;SDS011;34221;45.296;9.516;2023-09-30T00:53:06;26.13;;;20.67;;
47812;SDS011;34221;45.296;9.516;2023-09-30T00:53:22;23.15;;;19.10;;
47812;SDS011;34221;45.296;9.516;2023-09-30T00:53:37;23.02;;;19.17;;
47812;SDS011;34221;45.296;9.516;2023-09-30T00:53:53;24.33;;;19.80;;
47812;SDS011;34221;45.296;9.516;2023-09-30T00:54:11;23.38;;;19.42;;
47812;SDS011;34221;45.296;9.516;2023-09-30T00:54:27;24.90;;;19.85;;
47812;SDS011;34221;45.296;9.516;2023-09-30T00:54:43;23.90;;;19.70;;
47812;SDS011;34221;45.296;9.516;2023-09-30T00:54:58;22.83;;;19.55;;
47812;SDS011;34221;45.296;9.516;2023-09-30T00:55:14;23.67;;;19.00;;
47812;SDS011;34221;45.296;9.516;2023-09-30T00:55:29;25.30;;;18.55;;
47812;SDS011;34221;45.296;9.516;2023-09-30T00:55:45;27.05;;;19.88;;
47812;SDS011;34221;45.296;9.516;2023-09-30T00:56:00;23.25;;;19.63;;
47812;SDS011;34221;45.296;9.516;2023-09-30T00:56:17;22.08;;;19.67;;
47812;SDS011;34221;45.296;9.516;2023-09-30T00:56:33;23.10;;;19.08;;
47812;SDS011;34221;45.296;9.516;2023-09-30T00:56:49;24.42;;;19.33;;
47812;SDS011;34221;45.296;9.516;2023-09-30T00:57:06;25.17;;;19.88;;
47812;SDS011;34221;45.296;9.516;2023-09-30T00:57:21;23.33;;;19.40;;
47812;SDS011;34221;45.296;9.516;2023-09-30T00:57:37;25.25;;;19.88;;
47812;SDS011;34221;45.296;9.516;2023-09-30T00:57:53;29.67;;;20.08;;
47812;SDS011;34221;45.296;9.516;2023-09-30T00:58:08;25.65;;;19.15;;
47812;SDS011;34221;45.296;9.516;2023-09-30T00:58:25;23.75;;;19.13;;
47812;SDS011;34221;45.296;9.516;2023-09-30T00:58:43;23.70;;;19.52;;
47812;SDS011;34221;45.296;9.516;2023-09-30T00:59:00;24.23;;;20.58;;
47812;SDS011;34221;45.296;9.516;2023-09-30T00:59:16;23.52;;;20.13;;
47812;SDS011;34221;45.296;9.516;2023-09-30T00:59:33;24.73;;;19.27;;
47812;SDS011;34221;45.296;9.516;2023-09-30T00:59:48;24.27;;;19.00;;
47812;SDS011;34221;45.296;9.516;2023-09-30T01:00:06;22.05;;;18.40;;
47812;SDS011;34221;45.296;9.516;2023-09-30T01:00:26;24.23;;;19.58;;
47812;SDS011;34221;45.296;9.516;2023-09-30T01:01:00;22.63;;;18.70;;
47812;SDS011;34221;45.296;9.516;2023-09-30T01:01:15;26.02;;;19.65;;
47812;SDS011;34221;45.296;9.516;2023-09-30T01:01:31;26.02;;;19.80;;
47812;SDS011;34221;45.296;9.516;2023-09-30T01:01:46;24.55;;;19.23;;
47812;SDS011;34221;45.296;9.516;2023-09-30T01:02:01;22.10;;;18.35;;
47812;SDS011;34221;45.296;9.516;2023-09-30T01:02:20;22.30;;;17.92;;
47812;SDS011;34221;45.296;9.516;2023-09-30T01:02:40;23.70;;;18.73;;
47812;SDS011;34221;45.296;9.516;2023-09-30T01:02:56;24.00;;;19.80;;
47812;SDS011;34221;45.296;9.516;2023-09-30T01:03:13;23.33;;;19.55;;
47812;SDS011;34221;45.296;9.516;2023-09-30T01:03:29;24.85;;;19.50;;
47812;SDS011;34221;45.296;9.516;2023-09-30T01:04:05;23.00;;;18.65;;
47812;SDS011;34221;45.296;9.516;2023-09-30T01:04:20;24.27;;;19.17;;
47812;SDS011;34221;45.296;9.516;2023-09-30T01:04:36;23.30;;;18.92;;
47812;SDS011;34221;45.296;9.516;2023-09-30T01:04:52;22.45;;;18.77;;
47812;SDS011;34221;45.296;9.516;2023-09-30T01:05:08;20.65;;;17.63;;
47812;SDS011;34221;45.296;9.516;2023-09-30T01:05:24;21.98;;;17.73;;
47812;SDS011;34221;45.296;9.516;2023-09-30T01:05:39;25.27;;;19.40;;
47812;SDS011;34221;45.296;9.516;2023-09-30T01:05:54;24.25;;;19.55;;
47812;SDS011;34221;45.296;9.516;2023-09-30T01:06:10;23.20;;;18.85;;
47812;SDS011;34221;45.296;9.516;2023-09-30T01:06:26;24.35;;;19.10;;
47812;SDS011;34221;45.296;9.516;2023-09-30T01:06:41;24.00;;;18.83;;
47812;SDS011;34221;45.296;9.516;2023-09-30T01:06:57;20.95;;;18.10;;
47812;SDS011;34221;45.296;9.516;2023-09-30T01:07:14;22.30;;;18.85;;
47812;SDS011;34221;45.296;9.516;2023-09-30T01:07:30;23.67;;;18.50;;
47812;SDS011;34221;45.296;9.516;2023-09-30T01:07:45;25.85;;;18.20;;
47812;SDS011;34221;45.296;9.516;2023-09-30T01:08:01;27.13;;;18.63;;
47812;SDS011;34221;45.296;9.516;2023-09-30T01:08:17;24.75;;;18.25;;
47812;SDS011;34221;45.296;9.516;2023-09-30T01:08:34;24.35;;;18.75;;
47812;SDS011;34221;45.296;9.516;2023-09-30T01:08:49;23.17;;;18.55;;
47812;SDS011;34221;45.296;9.516;2023-09-30T01:09:04;21.95;;;18.08;;
47812;SDS011;34221;45.296;9.516;2023-09-30T01:09:20;24.08;;;18.73;;
47812;SDS011;34221;45.296;9.516;2023-09-30T01:09:35;23.50;;;19.20;;
47812;SDS011;34221;45.296;9.516;2023-09-30T01:09:51;21.17;;;18.52;;
47812;SDS011;34221;45.296;9.516;2023-09-30T01:10:07;20.52;;;17.52;;
47812;SDS011;34221;45.296;9.516;2023-09-30T01:10:22;23.55;;;17.42;;
47812;SDS011;34221;45.296;9.516;2023-09-30T01:10:38;25.00;;;18.42;;
47812;SDS011;34221;45.296;9.516;2023-09-30T01:10:54;23.75;;;18.60;;
47812;SDS011;34221;45.296;9.516;2023-09-30T01:11:10;24.40;;;19.13;;
47812;SDS011;34221;45.296;9.516;2023-09-30T01:11:26;24.10;;;18.92;;
47812;SDS011;34221;45.296;9.516;2023-09-30T01:11:42;21.58;;;17.67;;
47812;SDS011;34221;45.296;9.516;2023-09-30T01:11:58;21.15;;;17.10;;
47812;SDS011;34221;45.296;9.516;2023-09-30T01:12:14;22.25;;;17.60;;
47812;SDS011;34221;45.296;9.516;2023-09-30T01:12:29;20.70;;;17.20;;
47812;SDS011;34221;45.296;9.516;2023-09-30T01:12:44;25.67;;;17.65;;
47812;SDS011;34221;45.296;9.516;2023-09-30T01:13:01;25.67;;;17.83;;
47812;SDS011;34221;45.296;9.516;2023-09-30T01:13:17;21.45;;;17.40;;
47812;SDS011;34221;45.296;9.516;2023-09-30T01:13:34;23.10;;;17.90;;
47812;SDS011;34221;45.296;9.516;2023-09-30T01:13:49;21.77;;;17.55;;
47812;SDS011;34221;45.296;9.516;2023-09-30T01:14:05;21.73;;;17.75;;
47812;SDS011;34221;45.296;9.516;2023-09-30T01:14:37;22.25;;;18.02;;
47812;SDS011;34221;45.296;9.516;2023-09-30T01:14:58;22.83;;;18.42;;
47812;SDS011;34221;45.296;9.516;2023-09-30T01:15:18;27.75;;;18.45;;
47812;SDS011;34221;45.296;9.516;2023-09-30T01:15:34;24.73;;;18.13;;
47812;SDS011;34221;45.296;9.516;2023-09-30T01:15:51;21.95;;;19.23;;
47812;SDS011;34221;45.296;9.516;2023-09-30T01:16:07;23.75;;;19.25;;
47812;SDS011;34221;45.296;9.516;2023-09-30T01:16:26;22.67;;;18.80;;
47812;SDS011;34221;45.296;9.516;2023-09-30T01:16:41;19.58;;;17.40;;
47812;SDS011;34221;45.296;9.516;2023-09-30T01:16:56;21.13;;;17.70;;
47812;SDS011;34221;45.296;9.516;2023-09-30T01:17:12;22.55;;;18.20;;
47812;SDS011;34221;45.296;9.516;2023-09-30T01:17:27;21.13;;;17.98;;
47812;SDS011;34221;45.296;9.516;2023-09-30T01:17:43;23.17;;;19.00;;
47812;SDS011;34221;45.296;9.516;2023-09-30T01:17:59;24.70;;;18.83;;
47812;SDS011;34221;45.296;9.516;2023-09-30T01:18:15;24.35;;;18.30;;
47812;SDS011;34221;45.296;9.516;2023-09-30T01:18:31;21.98;;;17.83;;
47812;SDS011;34221;45.296;9.516;2023-09-30T01:18:47;20.75;;;17.48;;
47812;SDS011;34221;45.296;9.516;2023-09-30T01:19:02;21.65;;;17.58;;
47812;SDS011;34221;45.296;9.516;2023-09-30T01:19:18;23.75;;;18.30;;
47812;SDS011;34221;45.296;9.516;2023-09-30T01:19:36;22.55;;;18.05;;
47812;SDS011;34221;45.296;9.516;2023-09-30T01:19:51;21.17;;;18.15;;
47812;SDS011;34221;45.296;9.516;2023-09-30T01:20:06;22.50;;;18.15;;
47812;SDS011;34221;45.296;9.516;2023-09-30T01:20:24;22.55;;;17.95;;
47812;SDS011;34221;45.296;9.516;2023-09-30T01:20:39;21.45;;;17.58;;
47812;SDS011;34221;45.296;9.516;2023-09-30T01:20:54;21.58;;;17.92;;
47812;SDS011;34221;45.296;9.516;2023-09-30T01:21:10;21.38;;;18.15;;
47812;SDS011;34221;45.296;9.516;2023-09-30T01:21:26;21.08;;;17.63;;
47812;SDS011;34221;45.296;9.516;2023-09-30T01:21:42;19.70;;;17.27;;
47812;SDS011;34221;45.296;9.516;2023-09-30T01:22:02;19.77;;;17.35;;
47812;SDS011;34221;45.296;9.516;2023-09-30T01:22:18;21.77;;;18.08;;
47812;SDS011;34221;45.296;9.516;2023-09-30T01:22:34;24.50;;;18.55;;
47812;SDS011;34221;45.296;9.516;2023-09-30T01:22:49;24.40;;;18.60;;
47812;SDS011;34221;45.296;9.516;2023-09-30T01:23:04;20.90;;;17.52;;
47812;SDS011;34221;45.296;9.516;2023-09-30T01:23:20;21.27;;;18.27;;
47812;SDS011;34221;45.296;9.516;2023-09-30T01:23:35;22.52;;;18.45;;
47812;SDS011;34221;45.296;9.516;2023-09-30T01:23:51;23.38;;;18.35;;
47812;SDS011;34221;45.296;9.516;2023-09-30T01:24:06;25.30;;;18.95;;
47812;SDS011;34221;45.296;9.516;2023-09-30T01:24:22;24.42;;;18.52;;
47812;SDS011;34221;45.296;9.516;2023-09-30T01:24:40;21.85;;;17.95;;
47812;SDS011;34221;45.296;9.516;2023-09-30T01:24:56;22.65;;;18.60;;
47812;SDS011;34221;45.296;9.516;2023-09-30T01:25:12;23.08;;;18.60;;
47812;SDS011;34221;45.296;9.516;2023-09-30T01:25:27;24.73;;;19.23;;
47812;SDS011;34221;45.296;9.516;2023-09-30T01:25:42;23.98;;;18.85;;
47812;SDS011;34221;45.296;9.516;2023-09-30T01:26:04;21.33;;;17.83;;
47812;SDS011;34221;45.296;9.516;2023-09-30T01:26:23;21.05;;;18.33;;
47812;SDS011;34221;45.296;9.516;2023-09-30T01:26:38;21.30;;;18.20;;
47812;SDS011;34221;45.296;9.516;2023-09-30T01:26:53;21.48;;;17.95;;
47812;SDS011;34221;45.296;9.516;2023-09-30T01:27:09;20.65;;;17.88;;
47812;SDS011;34221;45.296;9.516;2023-09-30T01:27:24;21.17;;;17.70;;
47812;SDS011;34221;45.296;9.516;2023-09-30T01:27:40;23.65;;;18.05;;
47812;SDS011;34221;45.296;9.516;2023-09-30T01:27:55;23.05;;;17.83;;
47812;SDS011;34221;45.296;9.516;2023-09-30T01:28:14;22.25;;;18.05;;
47812;SDS011;34221;45.296;9.516;2023-09-30T01:28:32;21.75;;;18.35;;
47812;SDS011;34221;45.296;9.516;2023-09-30T01:28:47;20.48;;;18.05;;
47812;SDS011;34221;45.296;9.516;2023-09-30T01:29:03;20.83;;;17.95;;
47812;SDS011;34221;45.296;9.516;2023-09-30T01:29:18;22.90;;;18.77;;
47812;SDS011;34221;45.296;9.516;2023-09-30T01:29:35;22.55;;;18.27;;
47812;SDS011;34221;45.296;9.516;2023-09-30T01:29:52;21.92;;;17.42;;
47812;SDS011;34221;45.296;9.516;2023-09-30T01:30:08;22.73;;;17.63;;
47812;SDS011;34221;45.296;9.516;2023-09-30T01:30:25;23.17;;;17.67;;
47812;SDS011;34221;45.296;9.516;2023-09-30T01:30:40;21.98;;;17.45;;
47812;SDS011;34221;45.296;9.516;2023-09-30T01:30:57;19.95;;;16.98;;
47812;SDS011;34221;45.296;9.516;2023-09-30T01:31:13;20.27;;;17.63;;
47812;SDS011;34221;45.296;9.516;2023-09-30T01:31:29;22.42;;;18.35;;
47812;SDS011;34221;45.296;9.516;2023-09-30T01:31:44;26.25;;;18.42;;
47812;SDS011;34221;45.296;9.516;2023-09-30T01:32:02;23.85;;;18.45;;
47812;SDS011;34221;45.296;9.516;2023-09-30T01:32:21;21.83;;;17.75;;
47812;SDS011;34221;45.296;9.516;2023-09-30T01:32:37;23.33;;;18.35;;
47812;SDS011;34221;45.296;9.516;2023-09-30T01:32:52;24.35;;;17.73;;
47812;SDS011;34221;45.296;9.516;2023-09-30T01:33:07;23.42;;;17.50;;
47812;SDS011;34221;45.296;9.516;2023-09-30T01:33:23;20.15;;;17.92;;
47812;SDS011;34221;45.296;9.516;2023-09-30T01:33:38;20.58;;;18.33;;
47812;SDS011;34221;45.296;9.516;2023-09-30T01:33:53;21.50;;;18.38;;
47812;SDS011;34221;45.296;9.516;2023-09-30T01:34:09;21.88;;;17.70;;
47812;SDS011;34221;45.296;9.516;2023-09-30T01:34:25;21.92;;;17.33;;
47812;SDS011;34221;45.296;9.516;2023-09-30T01:34:40;21.98;;;17.33;;